Terminal Aerodrome Forecast
Issued by NWS

Current Version | Previous Version | Text Only | Print | Product List | Glossary On
Versions: 1 2 3 4 5 6 7 8 9 10 11 12 13 14 15 16
000
FTUS42 KTAE 030500
TAFDHN
TAF
KDHN 030520Z 0306/0406 VRB06KT P6SM VCTS SCT015 BKN025CB OVC050
      TEMPO 0306/0308 VRB15G25KT 2SM TSRA SCT008 BKN015CB
     FM030800 34003KT P6SM SCT120 OVC200
      TEMPO 0309/0313 4SM BR
     FM031500 35004KT P6SM SCT050
     FM031900 20006KT P6SM VCTS SCT035CB BKN060
      TEMPO 0323/0403 VRB15G25KT 2SM TSRA SCT020CB BKN035
     FM040400 VRB03KT P6SM VCSH SCT100 BKN250=

USA.gov is the U.S. government's official web portal to all federal, state and local government web resources and services.